Terminal Aerodrome Forecast
Issued by NWS Shreveport, LA

Home | Current Version | Previous Version | Text Only | Print | Product List | Glossary On
Versions: 1 2 3 4 5 6 7 8 9 10 11 12 13 14 15 16 17 18
689
FTUS44 KSHV 182320
TAFMLU
TAF
KMLU 182320Z 1900/1924 32017G32KT P6SM SKC
     FM190400 35016G26KT P6SM BKN280
     FM190600 35015KT P6SM SKC
     FM191500 36013KT P6SM SKC
     FM192200 35009KT P6SM SKC=

USA.gov is the U.S. government's official web portal to all federal, state and local government web resources and services.